QFA475 YSSY-YMML
Flight info
| Callsign | QFA475 |
|---|---|
| Flight time | N/A |
| Altitude | 35000 |
| Route | WOL H65 LEECE Q29 ML |
| Aircraft | A332/H-SDE3GHIJ2J3J5M1RVWXY/LB2D1 |
Departure
| Time | 2026-05-01 09:47 |
|---|---|
| Airport | Sydney Kingsford Smith International Airport (YSSY) |
Arrival
| Time | N/A |
|---|---|
| Airport | Melbourne Airport (YMML) |
| Time | Latitude | Longitude | Altitude | Speed | Heading |
|---|---|---|---|---|---|
| 2026-05-01 08:42 | -33.94447 | 151.17237 | 31 ft | 0 kts | 161° |
| 2026-05-01 09:16 | -33.94437 | 151.17233 | 29 ft | 3 kts | 161° |
| 2026-05-01 09:17 | -33.94403 | 151.17219 | 29 ft | 3 kts | 161° |
| 2026-05-01 09:17 | -33.94385 | 151.17212 | 29 ft | 3 kts | 140° |
| 2026-05-01 09:17 | -33.94373 | 151.17186 | 29 ft | 0 kts | 78° |
| 2026-05-01 09:26 | -33.94372 | 151.17191 | 28 ft | 3 kts | 76° |
| 2026-05-01 09:27 | -33.94340 | 151.17284 | 29 ft | 9 kts | 69° |
| 2026-05-01 09:27 | -33.94343 | 151.17368 | 28 ft | 10 kts | 119° |
| 2026-05-01 09:27 | -33.94358 | 151.17388 | 29 ft | 0 kts | 134° |
| 2026-05-01 09:28 | -33.94359 | 151.17389 | 29 ft | 0 kts | 135° |
| 2026-05-01 09:28 | -33.94361 | 151.17389 | 29 ft | 0 kts | 149° |
| 2026-05-01 09:29 | -33.94362 | 151.17389 | 29 ft | 0 kts | 148° |
| 2026-05-01 09:30 | -33.94460 | 151.17484 | 28 ft | 10 kts | 144° |
| 2026-05-01 09:30 | -33.94515 | 151.17527 | 28 ft | 9 kts | 150° |
| 2026-05-01 09:30 | -33.94570 | 151.17609 | 28 ft | 6 kts | 64° |
| 2026-05-01 09:31 | -33.94543 | 151.17667 | 28 ft | 12 kts | 64° |
| 2026-05-01 09:31 | -33.94517 | 151.17762 | 27 ft | 11 kts | 74° |
| 2026-05-01 09:31 | -33.94511 | 151.17788 | 26 ft | 0 kts | 74° |
| 2026-05-01 09:32 | -33.94510 | 151.17793 | 26 ft | 3 kts | 76° |
| 2026-05-01 09:32 | -33.94582 | 151.17898 | 28 ft | 12 kts | 164° |
| 2026-05-01 09:32 | -33.94698 | 151.17930 | 30 ft | 23 kts | 167° |
| 2026-05-01 09:33 | -33.94879 | 151.17976 | 27 ft | 28 kts | 168° |
| 2026-05-01 09:33 | -33.95055 | 151.18024 | 30 ft | 24 kts | 160° |
| 2026-05-01 09:33 | -33.95059 | 151.18350 | 29 ft | 19 kts | 78° |
| 2026-05-01 09:34 | -33.95054 | 151.18477 | 30 ft | 0 kts | 116° |
| 2026-05-01 09:35 | -33.95127 | 151.18559 | 29 ft | 15 kts | 139° |
| 2026-05-01 09:35 | -33.95213 | 151.18649 | 28 ft | 18 kts | 140° |
| 2026-05-01 09:36 | -33.95334 | 151.18725 | 29 ft | 22 kts | 164° |
| 2026-05-01 09:36 | -33.95497 | 151.18770 | 29 ft | 25 kts | 167° |
| 2026-05-01 09:36 | -33.95658 | 151.18812 | 29 ft | 22 kts | 168° |
| 2026-05-01 09:36 | -33.95804 | 151.18848 | 30 ft | 21 kts | 168° |
| 2026-05-01 09:37 | -33.95936 | 151.18882 | 31 ft | 19 kts | 168° |
| 2026-05-01 09:37 | -33.96192 | 151.18949 | 29 ft | 18 kts | 168° |
| 2026-05-01 09:37 | -33.96311 | 151.18979 | 30 ft | 17 kts | 168° |
| 2026-05-01 09:38 | -33.96569 | 151.19046 | 24 ft | 20 kts | 168° |
| 2026-05-01 09:38 | -33.96700 | 151.19076 | 24 ft | 19 kts | 175° |
| 2026-05-01 09:38 | -33.96827 | 151.19072 | 23 ft | 18 kts | 174° |
| 2026-05-01 09:39 | -33.97051 | 151.19127 | 27 ft | 15 kts | 167° |
| 2026-05-01 09:39 | -33.97126 | 151.19189 | 28 ft | 13 kts | 104° |
| 2026-05-01 09:39 | -33.97125 | 151.19244 | 28 ft | 0 kts | 80° |
| 2026-05-01 09:45 | -33.97070 | 151.19373 | 29 ft | 11 kts | 11° |
| 2026-05-01 09:45 | -33.97026 | 151.19366 | 27 ft | 0 kts | 348° |
| 2026-05-01 09:46 | -33.97025 | 151.19365 | 27 ft | 5 kts | 348° |
| 2026-05-01 09:46 | -33.96760 | 151.19296 | 25 ft | 71 kts | 347° |
| 2026-05-01 09:46 | -33.96088 | 151.19120 | 33 ft | 125 kts | 347° |
| 2026-05-01 09:46 | -33.95075 | 151.18845 | 111 ft | 165 kts | 347° |
| 2026-05-01 09:47 | -33.93928 | 151.18565 | 669 ft | 170 kts | 348° |
| 2026-05-01 09:47 | -33.92762 | 151.18274 | 1353 ft | 173 kts | 348° |
| 2026-05-01 09:47 | -33.92359 | 151.18177 | 1564 ft | 176 kts | 348° |